Time;durP1;ratioP1;P1;durP2;ratioP2;P2;SDS_P1;SDS_P2;PMS_P1;PMS_P2;Temp;Humidity;BMP_temperature;BMP_pressure;BME280_temperature;BME280_humidity;BME280_pressure;Samples;Min_cycle;Max_cycle;Signal;HPM_P1;HPM_P2
2022/08/26 00:00:43;;;;;;;15.18;12.63;;;;;;;;;;5076104;28;20517;-81
2022/08/26 00:03:10;;;;;;;19.10;13.25;;;;;;;;;;5076437;28;20189;-80
2022/08/26 00:05:36;;;;;;;17.95;13.32;;;;;;;;;;5076372;28;20049;-80
2022/08/26 00:08:02;;;;;;;18.50;13.02;;;;;;;;;;5077098;28;20487;-80
2022/08/26 00:10:28;;;;;;;16.13;13.32;;;;;;;;;;5077701;28;20052;-80
2022/08/26 00:12:54;;;;;;;15.13;12.50;;;;;;;;;;5059600;28;20061;-81
2022/08/26 00:15:21;;;;;;;18.20;12.23;;;;;;;;;;5074072;28;20044;-80
2022/08/26 00:17:48;;;;;;;16.48;13.63;;;;;;;;;;5077531;28;20047;-81
2022/08/26 00:20:16;;;;;;;16.40;14.45;;;;;;;;;;5075897;28;20040;-81
2022/08/26 00:22:42;;;;;;;17.27;14.27;;;;;;;;;;5076870;28;20134;-81
2022/08/26 00:25:08;;;;;;;16.77;14.48;;;;;;;;;;5076086;28;20041;-82
2022/08/26 00:27:34;;;;;;;19.55;13.55;;;;;;;;;;5076592;28;20414;-81
2022/08/26 00:30:02;;;;;;;17.15;14.90;;;;;;;;;;5075010;28;20122;-82
2022/08/26 00:32:28;;;;;;;18.02;14.52;;;;;;;;;;5066772;28;20407;-81
2022/08/26 00:34:54;;;;;;;17.25;14.60;;;;;;;;;;5074276;28;20433;-81
2022/08/26 00:37:20;;;;;;;18.23;15.25;;;;;;;;;;5072150;28;20401;-82
2022/08/26 00:39:46;;;;;;;19.35;15.50;;;;;;;;;;5077367;28;20048;-82
2022/08/26 00:42:12;;;;;;;19.13;15.05;;;;;;;;;;5077700;28;20117;-80
2022/08/26 00:44:38;;;;;;;18.15;15.45;;;;;;;;;;5076927;28;20049;-81
2022/08/26 00:47:06;;;;;;;18.02;16.23;;;;;;;;;;5058949;28;20051;-82
2022/08/26 00:49:38;;;;;;;18.13;15.43;;;;;;;;;;5060034;28;20044;-82
2022/08/26 00:52:06;;;;;;;22.63;17.40;;;;;;;;;;5067482;28;20053;-81
2022/08/26 00:54:35;;;;;;;18.90;16.65;;;;;;;;;;5073993;28;20105;-81
2022/08/26 00:57:05;;;;;;;20.80;17.52;;;;;;;;;;5072854;28;20056;-82
2022/08/26 00:59:32;;;;;;;22.90;20.42;;;;;;;;;;5076346;28;20072;-81
2022/08/26 01:01:58;;;;;;;23.35;19.63;;;;;;;;;;5075142;28;20070;-82
2022/08/26 01:04:24;;;;;;;24.80;21.73;;;;;;;;;;5075534;28;20048;-82
2022/08/26 01:06:51;;;;;;;26.90;24.20;;;;;;;;;;5076784;28;20037;-81
2022/08/26 01:09:18;;;;;;;29.27;26.05;;;;;;;;;;5075219;28;20087;-82
2022/08/26 01:11:44;;;;;;;30.13;27.13;;;;;;;;;;5058470;28;20047;-81
2022/08/26 01:14:12;;;;;;;32.70;29.58;;;;;;;;;;5075008;28;20140;-81
2022/08/26 01:16:38;;;;;;;33.20;30.00;;;;;;;;;;5076492;28;20058;-82
2022/08/26 01:19:24;;;;;;;34.72;31.15;;;;;;;;;;5075841;28;20123;-81
2022/08/26 01:21:55;;;;;;;35.05;31.45;;;;;;;;;;5077835;28;20043;-81
2022/08/26 01:24:22;;;;;;;38.88;34.85;;;;;;;;;;5074557;28;20070;-81
2022/08/26 01:26:48;;;;;;;39.45;35.72;;;;;;;;;;5074400;28;20044;-81
2022/08/26 01:29:16;;;;;;;41.08;36.90;;;;;;;;;;5057813;28;20044;-80
2022/08/26 01:31:44;;;;;;;40.38;36.55;;;;;;;;;;5063547;28;20067;-81
2022/08/26 01:34:17;;;;;;;39.47;35.88;;;;;;;;;;5075444;28;20043;-81
2022/08/26 01:36:43;;;;;;;43.13;38.97;;;;;;;;;;5059916;28;20433;-82
2022/08/26 01:39:10;;;;;;;41.97;37.88;;;;;;;;;;5078789;28;20044;-81
2022/08/26 01:41:37;;;;;;;39.30;35.58;;;;;;;;;;5079104;28;20060;-81
2022/08/26 01:44:05;;;;;;;42.60;38.65;;;;;;;;;;5055963;28;20049;-80
2022/08/26 01:46:31;;;;;;;42.72;38.63;;;;;;;;;;5071246;28;20044;-80
2022/08/26 01:48:59;;;;;;;40.47;36.70;;;;;;;;;;5078858;28;20103;-80
2022/08/26 01:51:26;;;;;;;43.35;38.92;;;;;;;;;;5082114;28;20048;-80
2022/08/26 01:53:52;;;;;;;44.13;39.42;;;;;;;;;;5058817;28;20140;-81
2022/08/26 01:56:18;;;;;;;45.40;40.90;;;;;;;;;;5062775;28;20059;-80
2022/08/26 01:58:46;;;;;;;45.08;40.65;;;;;;;;;;5080175;28;20045;-81
2022/08/26 02:01:13;;;;;;;51.38;44.97;;;;;;;;;;5079936;28;20045;-81
2022/08/26 02:03:49;;;;;;;47.17;42.28;;;;;;;;;;5079029;28;20043;-80
2022/08/26 02:06:18;;;;;;;50.75;45.00;;;;;;;;;;5080526;28;20044;-81
2022/08/26 02:08:46;;;;;;;51.05;45.60;;;;;;;;;;5080669;28;20137;-80
2022/08/26 02:11:12;;;;;;;50.78;45.28;;;;;;;;;;5079710;28;20040;-81
2022/08/26 02:13:41;;;;;;;49.55;44.30;;;;;;;;;;5076224;28;20060;-81
2022/08/26 02:16:08;;;;;;;49.78;43.63;;;;;;;;;;5062631;28;20493;-81
2022/08/26 02:18:35;;;;;;;46.97;42.08;;;;;;;;;;5080400;28;20072;-80
2022/08/26 02:21:01;;;;;;;44.25;39.60;;;;;;;;;;5079773;28;20048;-81
2022/08/26 02:23:27;;;;;;;44.85;39.70;;;;;;;;;;5080639;28;20048;-81
2022/08/26 02:26:03;;;;;;;41.72;37.25;;;;;;;;;;5072795;28;20045;-81
2022/08/26 02:28:33;;;;;;;45.83;40.78;;;;;;;;;;5080413;28;20044;-82
2022/08/26 02:30:59;;;;;;;47.08;39.70;;;;;;;;;;5061738;28;20118;-82
2022/08/26 02:33:27;;;;;;;49.60;40.33;;;;;;;;;;5081965;28;20039;-82
2022/08/26 02:35:53;;;;;;;44.08;38.58;;;;;;;;;;5080840;28;20070;-81
2022/08/26 02:38:19;;;;;;;42.72;38.13;;;;;;;;;;5079668;28;20044;-82
2022/08/26 02:40:45;;;;;;;39.42;33.45;;;;;;;;;;5079314;28;20036;-82
2022/08/26 02:43:11;;;;;;;42.83;37.30;;;;;;;;;;5080102;28;20388;-81
2022/08/26 02:45:38;;;;;;;42.72;36.90;;;;;;;;;;5081381;28;20044;-82
2022/08/26 02:48:09;;;;;;;41.60;36.30;;;;;;;;;;5061357;28;20040;-81
2022/08/26 02:50:35;;;;;;;47.90;38.55;;;;;;;;;;5079849;28;20048;-81
2022/08/26 02:53:01;;;;;;;42.95;38.28;;;;;;;;;;5079459;28;20037;-82
2022/08/26 02:55:27;;;;;;;42.60;37.20;;;;;;;;;;5077312;28;20048;-81
2022/08/26 02:57:53;;;;;;;43.75;37.75;;;;;;;;;;5079717;28;20056;-83
2022/08/26 03:00:20;;;;;;;44.42;38.90;;;;;;;;;;5074406;28;20037;-80
2022/08/26 03:02:46;;;;;;;46.28;39.28;;;;;;;;;;5078699;28;20044;-82
2022/08/26 03:05:12;;;;;;;45.72;39.72;;;;;;;;;;5080740;28;20040;-81
2022/08/26 03:07:38;;;;;;;44.63;37.97;;;;;;;;;;5078771;28;20049;-81
2022/08/26 03:10:05;;;;;;;51.63;38.55;;;;;;;;;;5079614;28;20518;-82
2022/08/26 03:12:31;;;;;;;44.53;37.80;;;;;;;;;;5079674;28;20108;-82
2022/08/26 03:14:57;;;;;;;43.47;37.10;;;;;;;;;;5080266;28;20053;-81
2022/08/26 03:17:23;;;;;;;43.90;39.00;;;;;;;;;;5078240;28;20049;-81
2022/08/26 03:19:49;;;;;;;48.85;39.20;;;;;;;;;;5080212;28;20049;-81
2022/08/26 03:22:15;;;;;;;41.53;37.10;;;;;;;;;;5045258;28;20040;-81
2022/08/26 03:24:41;;;;;;;47.95;38.03;;;;;;;;;;5060497;28;20043;-83
2022/08/26 03:27:07;;;;;;;40.85;36.15;;;;;;;;;;5077612;28;20486;-82
2022/08/26 03:32:19;;;;;;;44.97;39.35;;;;;;;;;;5080502;28;20044;-82
2022/08/26 03:34:45;;;;;;;48.15;38.42;;;;;;;;;;5080425;28;20145;-82
2022/08/26 03:37:11;;;;;;;45.15;38.67;;;;;;;;;;5081747;28;20475;-82
2022/08/26 03:39:37;;;;;;;50.25;39.35;;;;;;;;;;5071655;28;20100;-80
2022/08/26 03:42:04;;;;;;;44.05;37.80;;;;;;;;;;5078752;28;20047;-80
2022/08/26 03:44:30;;;;;;;50.15;38.80;;;;;;;;;;5081081;28;20045;-82
2022/08/26 03:46:57;;;;;;;51.83;39.45;;;;;;;;;;5062595;28;20098;-81
2022/08/26 03:49:23;;;;;;;47.00;40.05;;;;;;;;;;5076397;28;20048;-80
2022/08/26 03:51:49;;;;;;;48.05;38.25;;;;;;;;;;5064601;28;20104;-81
2022/08/26 03:54:15;;;;;;;43.42;38.13;;;;;;;;;;5078313;28;20055;-81
2022/08/26 03:56:41;;;;;;;44.47;37.25;;;;;;;;;;5058766;28;20049;-81
2022/08/26 03:59:07;;;;;;;48.85;38.33;;;;;;;;;;5074579;28;20044;-80
2022/08/26 04:01:33;;;;;;;43.55;37.25;;;;;;;;;;5071103;28;20033;-80
2022/08/26 04:03:59;;;;;;;46.30;38.35;;;;;;;;;;5066485;28;20045;-80
2022/08/26 04:06:26;;;;;;;46.25;37.33;;;;;;;;;;5079398;28;20080;-81
2022/08/26 04:08:53;;;;;;;49.47;39.65;;;;;;;;;;5079287;28;20036;-81
2022/08/26 04:11:22;;;;;;;52.25;40.38;;;;;;;;;;5078022;28;20516;-80
2022/08/26 04:13:48;;;;;;;43.15;36.63;;;;;;;;;;5079751;28;20079;-81
2022/08/26 04:16:15;;;;;;;48.40;38.28;;;;;;;;;;5069367;28;20076;-81
2022/08/26 04:18:41;;;;;;;49.35;37.60;;;;;;;;;;5074403;28;20163;-81
2022/08/26 04:21:08;;;;;;;48.60;38.25;;;;;;;;;;5080691;28;20045;-82
2022/08/26 04:23:34;;;;;;;46.08;37.50;;;;;;;;;;5058796;28;20048;-79
2022/08/26 04:26:00;;;;;;;44.78;36.92;;;;;;;;;;5078053;28;20052;-82
2022/08/26 04:28:27;;;;;;;49.20;36.78;;;;;;;;;;5077859;28;20040;-82
2022/08/26 04:30:53;;;;;;;42.70;36.88;;;;;;;;;;5076934;28;20047;-81
2022/08/26 04:33:20;;;;;;;45.45;36.05;;;;;;;;;;5077603;28;20044;-82
2022/08/26 04:35:46;;;;;;;43.30;35.72;;;;;;;;;;5080013;28;20130;-81
2022/08/26 04:38:13;;;;;;;43.28;34.78;;;;;;;;;;5075726;28;20048;-81
2022/08/26 04:40:43;;;;;;;47.33;37.00;;;;;;;;;;5072485;28;20044;-82
2022/08/26 04:43:09;;;;;;;43.67;34.75;;;;;;;;;;5079635;28;20051;-82
2022/08/26 04:45:36;;;;;;;45.85;32.55;;;;;;;;;;5077769;28;20059;-82
2022/08/26 04:48:02;;;;;;;43.78;34.28;;;;;;;;;;5059628;28;20143;-80
2022/08/26 04:50:28;;;;;;;44.60;33.13;;;;;;;;;;5078864;28;20048;-81
2022/08/26 04:52:54;;;;;;;44.45;31.08;;;;;;;;;;5076760;28;20037;-82
2022/08/26 04:55:20;;;;;;;39.45;31.00;;;;;;;;;;5052895;28;21217;-82
2022/08/26 04:57:47;;;;;;;40.97;29.65;;;;;;;;;;5077285;28;20102;-82
2022/08/26 05:00:13;;;;;;;37.17;28.08;;;;;;;;;;5075504;28;20045;-81
2022/08/26 05:02:40;;;;;;;38.58;28.83;;;;;;;;;;5059971;28;20069;-81
2022/08/26 05:05:06;;;;;;;36.53;26.00;;;;;;;;;;5075458;28;20048;-82
2022/08/26 05:07:34;;;;;;;37.80;27.05;;;;;;;;;;5054743;28;20044;-82
2022/08/26 05:10:00;;;;;;;40.55;28.02;;;;;;;;;;5059424;28;20044;-82
2022/08/26 05:12:28;;;;;;;41.00;27.63;;;;;;;;;;5076448;28;20064;-83
2022/08/26 05:14:54;;;;;;;39.65;28.38;;;;;;;;;;5076333;28;20044;-82
2022/08/26 05:17:20;;;;;;;39.33;26.48;;;;;;;;;;5078104;28;20040;-82
2022/08/26 05:19:46;;;;;;;40.03;27.40;;;;;;;;;;5076872;28;20403;-82
2022/08/26 05:22:12;;;;;;;36.53;26.40;;;;;;;;;;5077481;28;20044;-82
2022/08/26 05:24:38;;;;;;;37.88;26.30;;;;;;;;;;5074342;28;20047;-83
2022/08/26 05:27:07;;;;;;;34.70;26.33;;;;;;;;;;5077726;28;20412;-83
2022/08/26 05:29:33;;;;;;;35.88;25.08;;;;;;;;;;5076083;28;20037;-82
2022/08/26 05:32:00;;;;;;;36.78;25.50;;;;;;;;;;5058195;28;20097;-83
2022/08/26 05:34:26;;;;;;;35.35;26.75;;;;;;;;;;5075059;28;20051;-82
2022/08/26 05:36:52;;;;;;;36.38;25.90;;;;;;;;;;5077781;28;20068;-82
2022/08/26 05:39:22;;;;;;;41.05;27.17;;;;;;;;;;5076862;28;20075;-82
2022/08/26 05:41:48;;;;;;;34.60;24.63;;;;;;;;;;5076709;28;20098;-81
2022/08/26 05:44:17;;;;;;;35.95;24.73;;;;;;;;;;5074556;28;20074;-82
2022/08/26 05:46:43;;;;;;;38.13;25.83;;;;;;;;;;5077893;28;20047;-82
2022/08/26 05:49:09;;;;;;;34.38;24.55;;;;;;;;;;5074943;28;20044;-81
2022/08/26 05:51:35;;;;;;;33.97;25.13;;;;;;;;;;5065317;28;20052;-82
2022/08/26 05:54:02;;;;;;;37.75;24.85;;;;;;;;;;5046809;28;20409;-83
2022/08/26 05:56:28;;;;;;;33.35;24.55;;;;;;;;;;5048077;28;20662;-81
2022/08/26 05:58:55;;;;;;;33.83;24.48;;;;;;;;;;5065029;28;20458;-83
2022/08/26 06:01:24;;;;;;;34.22;24.05;;;;;;;;;;5065610;28;20457;-81
2022/08/26 06:03:52;;;;;;;36.47;23.75;;;;;;;;;;5061343;28;20044;-82
2022/08/26 06:06:19;;;;;;;36.22;24.15;;;;;;;;;;5071209;28;20052;-82
2022/08/26 06:08:45;;;;;;;32.13;23.90;;;;;;;;;;5074560;28;20062;-80
2022/08/26 06:11:13;;;;;;;31.00;23.65;;;;;;;;;;5074932;28;20090;-82
2022/08/26 06:13:39;;;;;;;30.95;22.75;;;;;;;;;;5073684;28;20088;-81
2022/08/26 06:16:06;;;;;;;33.95;22.77;;;;;;;;;;5072475;28;20048;-81
2022/08/26 06:18:35;;;;;;;30.20;21.25;;;;;;;;;;5074441;28;20075;-80
2022/08/26 06:21:21;;;;;;;32.58;21.77;;;;;;;;;;5076930;28;20055;-80
2022/08/26 06:26:34;;;;;;;31.23;20.88;;;;;;;;;;5076721;28;20045;-80
2022/08/26 06:29:01;;;;;;;32.75;20.67;;;;;;;;;;5081769;28;20048;-81
2022/08/26 06:31:27;;;;;;;29.58;22.30;;;;;;;;;;5060675;28;20158;-80
2022/08/26 06:33:53;;;;;;;29.02;20.85;;;;;;;;;;5081795;28;20044;-81
2022/08/26 06:36:20;;;;;;;32.40;22.88;;;;;;;;;;5080725;28;20036;-82
2022/08/26 06:38:47;;;;;;;33.30;24.85;;;;;;;;;;5083698;28;20044;-82
2022/08/26 06:41:13;;;;;;;36.67;23.48;;;;;;;;;;5062974;28;20131;-82
2022/08/26 06:43:39;;;;;;;30.40;23.58;;;;;;;;;;5080874;28;20043;-81
2022/08/26 06:46:07;;;;;;;33.65;24.20;;;;;;;;;;5062582;28;20041;-81
2022/08/26 06:48:34;;;;;;;30.42;22.00;;;;;;;;;;5059294;28;20045;-82
2022/08/26 06:51:07;;;;;;;34.38;24.85;;;;;;;;;;5066315;28;20041;-82
2022/08/26 06:53:34;;;;;;;34.03;25.23;;;;;;;;;;5070228;28;20050;-81
2022/08/26 06:56:02;;;;;;;36.35;24.70;;;;;;;;;;5067935;28;20096;-80
2022/08/26 06:58:28;;;;;;;36.25;25.90;;;;;;;;;;5066724;28;20106;-81
2022/08/26 07:00:54;;;;;;;33.40;23.60;;;;;;;;;;5084710;28;20049;-81
2022/08/26 07:03:21;;;;;;;31.25;24.10;;;;;;;;;;5081236;28;20036;-83
2022/08/26 07:05:47;;;;;;;34.63;22.50;;;;;;;;;;5080883;28;20044;-81
2022/08/26 07:08:13;;;;;;;31.38;22.63;;;;;;;;;;5072074;28;20051;-80
2022/08/26 07:10:39;;;;;;;26.40;20.80;;;;;;;;;;5081110;28;20040;-82
2022/08/26 07:13:06;;;;;;;30.90;20.67;;;;;;;;;;5073599;28;20063;-81
2022/08/26 07:15:34;;;;;;;33.70;21.08;;;;;;;;;;5081426;28;20124;-81
2022/08/26 07:18:00;;;;;;;28.77;19.45;;;;;;;;;;5081097;28;20046;-82
2022/08/26 07:20:26;;;;;;;29.45;20.13;;;;;;;;;;5063138;28;20051;-81
2022/08/26 07:22:52;;;;;;;26.13;18.65;;;;;;;;;;5081445;28;20044;-81
2022/08/26 07:25:18;;;;;;;28.25;18.92;;;;;;;;;;5076631;28;20040;-81
2022/08/26 07:27:45;;;;;;;28.58;18.75;;;;;;;;;;5076658;28;20047;-82
2022/08/26 07:30:11;;;;;;;24.63;16.77;;;;;;;;;;5050732;28;20155;-80
2022/08/26 07:32:37;;;;;;;21.15;14.82;;;;;;;;;;5068436;28;20041;-80
2022/08/26 07:35:04;;;;;;;23.63;14.80;;;;;;;;;;5050635;28;20075;-81
2022/08/26 07:37:31;;;;;;;22.77;14.35;;;;;;;;;;5056916;28;20041;-81
2022/08/26 07:39:57;;;;;;;21.90;13.65;;;;;;;;;;5057014;28;20108;-82
2022/08/26 07:42:23;;;;;;;21.52;13.15;;;;;;;;;;5079965;28;20102;-81
2022/08/26 07:44:49;;;;;;;22.67;13.40;;;;;;;;;;5078877;28;20052;-82
2022/08/26 07:47:15;;;;;;;24.98;13.40;;;;;;;;;;5078990;28;20036;-82
2022/08/26 07:49:41;;;;;;;22.75;14.55;;;;;;;;;;5076513;28;20049;-82
2022/08/26 07:52:08;;;;;;;21.42;13.00;;;;;;;;;;5080019;28;20054;-81
2022/08/26 07:54:36;;;;;;;19.45;13.10;;;;;;;;;;5080387;28;20048;-81
2022/08/26 07:57:02;;;;;;;20.92;12.65;;;;;;;;;;5062367;28;20063;-82
2022/08/26 07:59:28;;;;;;;21.83;13.07;;;;;;;;;;5076176;28;20119;-81
2022/08/26 08:01:56;;;;;;;25.77;12.25;;;;;;;;;;5075907;28;20127;-82
2022/08/26 08:04:22;;;;;;;20.60;11.57;;;;;;;;;;5074584;28;20448;-83
2022/08/26 08:06:48;;;;;;;17.85;11.07;;;;;;;;;;5078677;28;20483;-82
2022/08/26 08:09:15;;;;;;;20.52;11.80;;;;;;;;;;5080371;28;20040;-82
2022/08/26 08:11:41;;;;;;;19.88;10.15;;;;;;;;;;5080001;28;20086;-81
2022/08/26 08:14:07;;;;;;;21.20;12.07;;;;;;;;;;5079066;28;20160;-82
2022/08/26 08:16:33;;;;;;;20.30;10.98;;;;;;;;;;5080267;28;20048;-83
2022/08/26 08:18:59;;;;;;;19.80;9.70;;;;;;;;;;5076312;28;20053;-82
2022/08/26 08:21:26;;;;;;;19.58;10.27;;;;;;;;;;5077058;28;20063;-81
2022/08/26 08:23:52;;;;;;;16.27;9.10;;;;;;;;;;5079162;28;20047;-82
2022/08/26 08:26:18;;;;;;;20.25;9.05;;;;;;;;;;5060581;28;20055;-82
2022/08/26 08:28:45;;;;;;;19.38;8.63;;;;;;;;;;5082164;28;20052;-82
2022/08/26 08:31:18;;;;;;;18.73;9.32;;;;;;;;;;5082153;28;20047;-82
2022/08/26 08:33:44;;;;;;;18.13;10.15;;;;;;;;;;5079599;28;20044;-81
2022/08/26 08:36:13;;;;;;;17.15;9.80;;;;;;;;;;5083406;28;20050;-82
2022/08/26 08:38:39;;;;;;;19.83;9.35;;;;;;;;;;5082708;28;20051;-83
2022/08/26 08:41:05;;;;;;;18.30;9.57;;;;;;;;;;5081701;28;20040;-83
2022/08/26 08:43:38;;;;;;;21.67;10.20;;;;;;;;;;5068541;28;20041;-82
2022/08/26 08:46:06;;;;;;;19.23;9.60;;;;;;;;;;5067707;28;20301;-82
2022/08/26 08:48:37;;;;;;;14.82;9.73;;;;;;;;;;5077978;28;20482;-82
2022/08/26 08:51:12;;;;;;;17.83;8.40;;;;;;;;;;5083694;28;20048;-82
2022/08/26 08:53:43;;;;;;;16.50;8.55;;;;;;;;;;5082573;28;20080;-82
2022/08/26 08:56:27;;;;;;;19.25;8.85;;;;;;;;;;5081687;28;20036;-82
2022/08/26 08:58:56;;;;;;;20.20;8.80;;;;;;;;;;5081124;28;20178;-81
2022/08/26 09:01:41;;;;;;;15.48;8.43;;;;;;;;;;5061664;28;20048;-81
2022/08/26 09:04:07;;;;;;;19.90;8.98;;;;;;;;;;5080006;28;20037;-82
2022/08/26 09:06:34;;;;;;;16.00;8.55;;;;;;;;;;5081703;28;20044;-81
2022/08/26 09:09:00;;;;;;;15.57;8.30;;;;;;;;;;5081443;28;20099;-81
2022/08/26 09:11:26;;;;;;;15.02;7.90;;;;;;;;;;5083481;28;20093;-82
2022/08/26 09:13:54;;;;;;;17.17;8.13;;;;;;;;;;5082098;28;20129;-82
2022/08/26 09:16:40;;;;;;;17.67;8.02;;;;;;;;;;5083514;28;20024;-83
2022/08/26 09:19:06;;;;;;;15.95;7.78;;;;;;;;;;5063326;28;20080;-82
2022/08/26 09:21:32;;;;;;;16.50;7.65;;;;;;;;;;5075621;28;20055;-83
2022/08/26 09:23:58;;;;;;;20.15;8.23;;;;;;;;;;5080211;28;20052;-83
2022/08/26 09:26:41;;;;;;;17.95;8.90;;;;;;;;;;5078780;28;20047;-83
2022/08/26 09:29:14;;;;;;;15.48;8.38;;;;;;;;;;5081887;28;20048;-82
2022/08/26 09:31:40;;;;;;;15.88;7.15;;;;;;;;;;5043387;28;20091;-83
2022/08/26 09:34:15;;;;;;;14.90;6.85;;;;;;;;;;5076495;28;20117;-84
2022/08/26 09:36:42;;;;;;;14.38;7.60;;;;;;;;;;5047522;28;20056;-83
2022/08/26 09:39:41;;;;;;;15.85;7.55;;;;;;;;;;5052290;28;20042;-81
2022/08/26 09:42:12;;;;;;;13.80;7.00;;;;;;;;;;5033031;28;20096;-83
2022/08/26 09:44:52;;;;;;;15.48;6.75;;;;;;;;;;5078164;28;20048;-82
2022/08/26 09:47:24;;;;;;;13.32;6.80;;;;;;;;;;5081361;28;20063;-81
2022/08/26 09:49:59;;;;;;;16.23;6.30;;;;;;;;;;5078889;28;20071;-82
2022/08/26 09:52:26;;;;;;;12.60;6.65;;;;;;;;;;5078375;28;20111;-82
2022/08/26 09:55:10;;;;;;;16.77;6.68;;;;;;;;;;5062658;28;20410;-82
2022/08/26 09:57:44;;;;;;;12.07;6.25;;;;;;;;;;5080237;28;20490;-83
2022/08/26 10:00:29;;;;;;;16.85;6.50;;;;;;;;;;5077741;28;20040;-82
2022/08/26 10:02:57;;;;;;;11.25;5.35;;;;;;;;;;5066277;28;20051;-82
2022/08/26 10:05:36;;;;;;;14.60;4.55;;;;;;;;;;5086042;28;20037;-83
2022/08/26 10:08:22;;;;;;;10.63;3.90;;;;;;;;;;5086105;28;20048;-83
2022/08/26 10:10:49;;;;;;;9.57;3.65;;;;;;;;;;5067273;28;20128;-83
2022/08/26 10:13:18;;;;;;;13.90;3.28;;;;;;;;;;5084003;28;20071;-82
2022/08/26 10:15:46;;;;;;;12.23;3.50;;;;;;;;;;5085022;28;20051;-83
2022/08/26 10:18:14;;;;;;;15.65;3.92;;;;;;;;;;5088352;28;20040;-83
2022/08/26 10:20:45;;;;;;;12.85;3.60;;;;;;;;;;5085433;28;20063;-83
2022/08/26 10:23:15;;;;;;;9.35;3.28;;;;;;;;;;5091863;28;20068;-83
2022/08/26 10:25:53;;;;;;;12.32;3.40;;;;;;;;;;5091564;28;20044;-82
2022/08/26 10:28:27;;;;;;;14.00;3.10;;;;;;;;;;5072586;28;20028;-82
2022/08/26 10:31:00;;;;;;;12.00;3.00;;;;;;;;;;5070681;28;20492;-83
2022/08/26 10:33:26;;;;;;;11.13;2.83;;;;;;;;;;5092911;28;20089;-82
2022/08/26 10:35:52;;;;;;;15.05;3.25;;;;;;;;;;5061228;28;20037;-82
2022/08/26 10:38:21;;;;;;;12.30;2.88;;;;;;;;;;5060953;28;20120;-83
2022/08/26 10:40:57;;;;;;;9.25;2.63;;;;;;;;;;5086930;28;20048;-84
2022/08/26 10:43:29;;;;;;;9.55;2.50;;;;;;;;;;5073942;28;20467;-84
2022/08/26 10:46:02;;;;;;;9.23;2.60;;;;;;;;;;5090738;28;20036;-83
2022/08/26 10:48:31;;;;;;;12.20;2.83;;;;;;;;;;5090921;28;20047;-83
2022/08/26 10:50:58;;;;;;;12.73;3.00;;;;;;;;;;5085195;28;20143;-84
2022/08/26 10:53:42;;;;;;;14.15;3.22;;;;;;;;;;5087963;28;20044;-84
2022/08/26 10:56:27;;;;;;;14.25;3.08;;;;;;;;;;5067963;28;20376;-83
2022/08/26 10:58:57;;;;;;;13.38;3.17;;;;;;;;;;5076184;28;20048;-82
2022/08/26 11:01:42;;;;;;;12.63;2.80;;;;;;;;;;5080587;28;20037;-82
2022/08/26 11:04:08;;;;;;;12.95;3.05;;;;;;;;;;5084146;28;20049;-80
2022/08/26 11:06:34;;;;;;;13.20;3.05;;;;;;;;;;5069178;28;20556;-83
2022/08/26 11:09:07;;;;;;;10.88;3.55;;;;;;;;;;5079369;28;20041;-81
2022/08/26 11:11:40;;;;;;;12.32;2.83;;;;;;;;;;5060404;28;20181;-83
2022/08/26 11:14:09;;;;;;;10.30;2.55;;;;;;;;;;5080290;28;20087;-83
2022/08/26 11:16:38;;;;;;;12.82;2.95;;;;;;;;;;5080478;28;20143;-82
2022/08/26 11:19:05;;;;;;;12.93;3.00;;;;;;;;;;5079700;28;20036;-81
2022/08/26 11:21:51;;;;;;;15.75;3.22;;;;;;;;;;5060744;28;20080;-82
2022/08/26 11:24:36;;;;;;;15.52;3.40;;;;;;;;;;5081797;28;20055;-83
2022/08/26 11:27:02;;;;;;;16.02;3.40;;;;;;;;;;5083506;28;20036;-82
2022/08/26 11:29:47;;;;;;;13.02;3.40;;;;;;;;;;5079479;28;20048;-81
2022/08/26 11:32:24;;;;;;;11.60;2.92;;;;;;;;;;5077190;28;20060;-82
2022/08/26 11:34:52;;;;;;;10.65;3.03;;;;;;;;;;5080793;28;20044;-82
2022/08/26 11:37:18;;;;;;;11.20;2.83;;;;;;;;;;5057913;28;20052;-81
2022/08/26 11:39:51;;;;;;;12.98;2.75;;;;;;;;;;5080972;28;20409;-82
2022/08/26 11:42:36;;;;;;;8.77;2.92;;;;;;;;;;5062133;28;20057;-79
2022/08/26 11:45:12;;;;;;;12.02;3.13;;;;;;;;;;5068429;28;20040;-81
2022/08/26 11:47:41;;;;;;;12.57;2.92;;;;;;;;;;5083027;28;20041;-83
2022/08/26 11:50:08;;;;;;;10.65;2.70;;;;;;;;;;5066965;28;20072;-81
2022/08/26 11:52:34;;;;;;;13.02;3.13;;;;;;;;;;5066215;28;20050;-82
2022/08/26 11:55:02;;;;;;;14.77;3.13;;;;;;;;;;5084293;28;20105;-83
2022/08/26 11:57:28;;;;;;;11.07;2.80;;;;;;;;;;5080758;28;20156;-81
2022/08/26 11:59:55;;;;;;;11.65;2.80;;;;;;;;;;5067450;28;20094;-83
2022/08/26 12:02:22;;;;;;;12.50;3.13;;;;;;;;;;5083343;28;20115;-83
2022/08/26 12:04:50;;;;;;;12.90;3.00;;;;;;;;;;5064175;28;20104;-83
2022/08/26 12:07:16;;;;;;;10.88;3.03;;;;;;;;;;5064037;28;20064;-82
2022/08/26 12:10:01;;;;;;;12.30;3.00;;;;;;;;;;5062911;28;20071;-82
2022/08/26 12:12:31;;;;;;;11.80;3.40;;;;;;;;;;5081737;28;20048;-84
2022/08/26 12:15:08;;;;;;;10.82;3.05;;;;;;;;;;5079036;28;20044;-82
2022/08/26 12:17:34;;;;;;;12.32;3.10;;;;;;;;;;5060522;28;20062;-84
2022/08/26 12:20:00;;;;;;;12.80;3.15;;;;;;;;;;5064524;28;20047;-84
2022/08/26 12:22:30;;;;;;;9.57;2.85;;;;;;;;;;5050893;28;20059;-84
2022/08/26 12:24:59;;;;;;;12.95;3.38;;;;;;;;;;5065620;28;20058;-82
2022/08/26 12:27:27;;;;;;;10.63;3.30;;;;;;;;;;5084729;28;20463;-83
2022/08/26 12:30:01;;;;;;;11.57;3.10;;;;;;;;;;5082395;28;20104;-82
2022/08/26 12:32:27;;;;;;;10.23;3.20;;;;;;;;;;5079998;28;20056;-82
2022/08/26 12:34:53;;;;;;;10.52;3.45;;;;;;;;;;5077189;28;20050;-83
2022/08/26 12:37:20;;;;;;;10.63;3.30;;;;;;;;;;5080450;28;20044;-83
2022/08/26 12:39:47;;;;;;;12.60;3.17;;;;;;;;;;5080554;28;20045;-83
2022/08/26 12:42:14;;;;;;;15.20;3.35;;;;;;;;;;5065182;28;20131;-84
2022/08/26 12:44:43;;;;;;;9.15;3.45;;;;;;;;;;5081692;28;20041;-85
2022/08/26 12:47:11;;;;;;;11.52;3.58;;;;;;;;;;5081082;28;20419;-83
2022/08/26 12:49:38;;;;;;;11.93;3.72;;;;;;;;;;5054810;28;20049;-84
2022/08/26 12:52:05;;;;;;;12.82;3.63;;;;;;;;;;5044024;28;20076;-83
2022/08/26 12:57:18;;;;;;;11.02;3.22;;;;;;;;;;5063619;28;20052;-82
2022/08/26 12:59:44;;;;;;;10.60;3.33;;;;;;;;;;5069829;28;20037;-83
2022/08/26 13:02:11;;;;;;;10.65;3.25;;;;;;;;;;5057697;28;20041;-82
2022/08/26 13:04:41;;;;;;;11.15;2.75;;;;;;;;;;5078133;28;20048;-83
2022/08/26 13:07:22;;;;;;;8.98;2.97;;;;;;;;;;5077048;28;20737;-83
2022/08/26 13:09:49;;;;;;;10.57;3.20;;;;;;;;;;5080812;28;20049;-83
2022/08/26 13:12:27;;;;;;;9.35;3.10;;;;;;;;;;5080547;28;20105;-83
2022/08/26 13:14:53;;;;;;;10.77;2.63;;;;;;;;;;5080488;28;20060;-84
2022/08/26 13:17:19;;;;;;;10.38;3.05;;;;;;;;;;5079311;28;20045;-83
2022/08/26 13:19:46;;;;;;;10.95;2.80;;;;;;;;;;5080268;28;20044;-83
2022/08/26 13:22:13;;;;;;;9.95;2.80;;;;;;;;;;5079515;28;20040;-85
2022/08/26 13:24:43;;;;;;;9.45;2.55;;;;;;;;;;5062584;28;20100;-81
2022/08/26 13:27:11;;;;;;;10.18;2.58;;;;;;;;;;5082599;28;20445;-82
2022/08/26 13:29:39;;;;;;;9.23;2.65;;;;;;;;;;5084176;28;20041;-83
2022/08/26 13:32:06;;;;;;;10.30;2.80;;;;;;;;;;5084065;28;20488;-83
2022/08/26 13:34:33;;;;;;;13.20;3.00;;;;;;;;;;5068774;28;20032;-82
2022/08/26 13:36:59;;;;;;;14.70;2.95;;;;;;;;;;5071350;28;20044;-81
2022/08/26 13:39:25;;;;;;;12.63;2.50;;;;;;;;;;5074094;28;20067;-84
2022/08/26 13:41:56;;;;;;;6.18;1.80;;;;;;;;;;5068594;28;20048;-84
2022/08/26 13:44:22;;;;;;;9.00;1.77;;;;;;;;;;5087748;28;20061;-83
2022/08/26 13:46:48;;;;;;;7.85;2.05;;;;;;;;;;5082067;28;20048;-83
2022/08/26 13:49:14;;;;;;;5.75;2.03;;;;;;;;;;5085416;28;20044;-82
2022/08/26 13:51:40;;;;;;;11.00;2.30;;;;;;;;;;5066576;28;20051;-84
2022/08/26 13:54:06;;;;;;;8.77;2.15;;;;;;;;;;5063255;28;20053;-82
2022/08/26 13:56:33;;;;;;;7.05;2.05;;;;;;;;;;5059044;28;20371;-83
2022/08/26 13:59:02;;;;;;;11.70;2.30;;;;;;;;;;5066535;28;20045;-82
2022/08/26 14:01:29;;;;;;;10.75;2.03;;;;;;;;;;5081996;28;20040;-82
2022/08/26 14:03:55;;;;;;;9.55;2.10;;;;;;;;;;5084604;28;20115;-82
2022/08/26 14:06:23;;;;;;;8.85;1.92;;;;;;;;;;5080267;28;20040;-82
2022/08/26 14:08:50;;;;;;;9.90;2.03;;;;;;;;;;5086419;28;20055;-85
2022/08/26 14:11:16;;;;;;;6.85;1.85;;;;;;;;;;5049311;28;20048;-83
2022/08/26 14:13:42;;;;;;;8.57;1.80;;;;;;;;;;5084039;28;20056;-84
2022/08/26 14:16:09;;;;;;;8.00;1.85;;;;;;;;;;5069407;28;20092;-84
2022/08/26 14:18:38;;;;;;;7.10;2.00;;;;;;;;;;5072481;28;20044;-85
2022/08/26 14:21:05;;;;;;;7.82;1.67;;;;;;;;;;5080647;28;20048;-85
2022/08/26 14:23:31;;;;;;;5.43;1.67;;;;;;;;;;5077062;28;20080;-83
2022/08/26 14:25:57;;;;;;;7.38;2.00;;;;;;;;;;5080673;28;20049;-85
2022/08/26 14:28:23;;;;;;;8.07;2.40;;;;;;;;;;5064276;28;20044;-85
2022/08/26 14:30:51;;;;;;;6.45;1.63;;;;;;;;;;5095731;28;20091;-85
2022/08/26 14:33:21;;;;;;;9.90;2.38;;;;;;;;;;5082014;28;20448;-87
2022/08/26 14:35:47;;;;;;;6.85;1.90;;;;;;;;;;5083364;28;20044;-85
2022/08/26 14:38:15;;;;;;;9.27;2.40;;;;;;;;;;5062629;28;20111;-86